^^
Saratoga-Weather Station Historical Data
Daily Summary for November 19, 2020 Units:  English    Metric   Both
Daily Weekly Monthly Yearly Custom
  High: Low: Average:
Temperature: 49.1 °F 32 °F 46.4 °F
Dew Point: 45.9 °F 32 °F 44.2 °F
Humidity: 97% % 91%
Wind Speed: 12.1mph 0mph 3.6mph
Wind Gust: 16mph - -
Wind- - West
Pressure: 30.5 in 0 in -
Precipitation: 0.13 in    
Historical Graphs
 
 
Tabular Data for November 19, 2020
Time Temperature Dew Point Pressure Wind Wind Speed Wind Gust Humidity Rainfall Rate (Hourly) solar
00:00 43.2 °F 42.4 °F 30.2 in Calm     97% 0 in 0 W/m2
00:05 43.2 °F 42.4 °F 30.2 in ESE 0.9 mph 2 mph 97% 0 in 0 W/m2
00:10 43.5 °F 42.8 °F 30.2 in ESE 0.9 mph 2 mph 97% 0 in 0 W/m2
00:15 43.5 °F 42.8 °F 30.2 in ESE 2 mph 2 mph 97% 0 in 0 W/m2
00:20 43.5 °F 42.8 °F 30.1 in ESE 0.9 mph 2 mph 97% 0 in 0 W/m2
00:25 43.3 °F 42.6 °F 30.2 in Calm   1 mph 97% 0 in 0 W/m2
00:30 43.5 °F 42.8 °F 30.1 in SE 3 mph 3 mph 97% 0 in 0 W/m2
00:36 43.9 °F 43.2 °F 30.1 in SE 2 mph 2 mph 97% 0 in 0 W/m2
00:41 44.1 °F 43.3 °F 30.1 in SE 0.9 mph 2 mph 97% 0 in 0 W/m2
00:46 44.4 °F 43.7 °F 30.1 in SE 2.9 mph 3 mph 97% 0 in 0 W/m2
00:51 44.6 °F 43.9 °F 30.1 in ESE 2 mph 6 mph 97% 0 in 0 W/m2
00:56 45 °F 44.2 °F 30.1 in East 2.9 mph 4 mph 97% 0 in 0 W/m2
01:01 45.1 °F 44.4 °F 30.1 in East 2.9 mph 3 mph 97% 0 in 0 W/m2
07:22 46.2 °F 43.7 °F 30.2 in West 2.9 mph 3 mph 91% 0 in 0 W/m2
07:27 46 °F 43.5 °F 30.2 in WSW 2.9 mph 5 mph 91% 0 in 0 W/m2
07:37 46 °F 43.5 °F 30.2 in WSW 6.9 mph 8 mph 91% 0 in 0 W/m2
07:42 46 °F 43.5 °F 30.2 in West 0.9 mph 2 mph 91% 0 in 0 W/m2
07:52 46 °F 43.9 °F 30.2 in WSW 4 mph 4 mph 92% 0 in 0 W/m2
07:57 46 °F 43.9 °F 30.2 in West 2 mph 4 mph 92% 0 in 0 W/m2
08:01 32 °F 32 °F 0 in Calm     % 0 in W/m2
08:07 46 °F 44.1 °F 30.2 in NW 2.9 mph 4 mph 93% 0 in 0 W/m2
08:17 46 °F 44.1 °F 30.2 in Calm   4 mph 93% 0 in 5 W/m2
08:22 46 °F 44.1 °F 30.2 in WNW 4 mph 10 mph 93% 0 in 5 W/m2
08:27 46 °F 44.1 °F 30.2 in West 4 mph 7 mph 93% 0 in 7 W/m2
08:32 46 °F 44.1 °F 30.2 in West 8.1 mph 10 mph 93% 0 in 7 W/m2
08:37 46.2 °F 44.2 °F 30.2 in West 2 mph 4 mph 93% 0 in 9 W/m2
08:42 46.2 °F 44.2 °F 30.2 in West 6 mph 10 mph 93% 0 in 19 W/m2
08:47 46.2 °F 44.2 °F 30.2 in West 4 mph 7 mph 93% 0 in 44 W/m2
08:52 46.4 °F 44.2 °F 30.2 in NW 2 mph 11 mph 92% 0 in 40 W/m2
08:57 46.4 °F 44.2 °F 30.2 in WNW 2 mph 8 mph 92% 0 in 33 W/m2
09:02 46.4 °F 44.2 °F 30.2 in WNW 4 mph 12 mph 92% 0 in 47 W/m2
09:07 46.6 °F 44.4 °F 30.2 in West 4 mph 4 mph 92% 0 in 69 W/m2
09:12 46.6 °F 44.4 °F 30.2 in WNW 6.9 mph 12 mph 92% 0 in 58 W/m2
09:17 46.6 °F 44.4 °F 30.2 in WSW 2.9 mph 7 mph 92% 0 in 35 W/m2
09:22 46.6 °F 44.4 °F 30.2 in WSW 2.9 mph 6 mph 92% 0 in 95 W/m2
09:27 46.8 °F 44.6 °F 30.2 in West 6.9 mph 8 mph 92% 0 in 79 W/m2
09:32 46.8 °F 44.6 °F 30.2 in West 4 mph 6 mph 92% 0 in 49 W/m2
09:37 46.9 °F 44.8 °F 30.2 in WSW 2 mph 7 mph 92% 0 in 88 W/m2
09:42 46.9 °F 44.8 °F 30.2 in WSW 4 mph 8 mph 92% 0 in 90 W/m2
09:47 46.9 °F 44.8 °F 30.2 in WSW 2.9 mph 7 mph 92% 0 in 98 W/m2
09:52 47.1 °F 45 °F 30.2 in WSW 4 mph 8 mph 92% 0 in 104 W/m2
09:57 47.1 °F 45 °F 30.2 in WNW 11 mph 11 mph 92% 0 in 88 W/m2
10:02 47.1 °F 44.6 °F 30.2 in WNW 4 mph 7 mph 91% 0 in 69 W/m2
10:07 47.1 °F 44.6 °F 30.2 in West 8.1 mph 9 mph 91% 0 in 81 W/m2
10:12 47.1 °F 44.6 °F 30.2 in West 2 mph 4 mph 91% 0 in 109 W/m2
10:17 47.3 °F 44.6 °F 30.2 in WNW 2.9 mph 11 mph 90% 0 in 102 W/m2
10:22 47.5 °F 44.8 °F 30.2 in West 2.9 mph 11 mph 90% 0 in 109 W/m2
10:27 47.7 °F 45 °F 30.2 in NNW 4 mph 7 mph 90% 0 in 111 W/m2
10:32 47.7 °F 45 °F 30.3 in WNW 4 mph 7 mph 90% 0 in 95 W/m2
10:37 47.7 °F 45 °F 30.2 in West 2 mph 7 mph 90% 0 in 93 W/m2
10:42 47.7 °F 44.6 °F 30.2 in WNW 2.9 mph 6 mph 89% 0 in 135 W/m2
10:47 47.8 °F 44.8 °F 30.2 in WNW 6 mph 11 mph 89% 0 in 88 W/m2
10:52 47.8 °F 44.8 °F 30.2 in West 4 mph 6 mph 89% 0 in 141 W/m2
10:57 48 °F 45 °F 30.2 in West 0.9 mph 10 mph 89% 0 in 121 W/m2
11:02 48.2 °F 45.1 °F 30.2 in West 4 mph 6 mph 89% 0 in 192 W/m2
11:08 48.4 °F 45.3 °F 30.2 in NW 4.9 mph 8 mph 89% 0 in 144 W/m2
11:13 48.6 °F 45.5 °F 30.3 in WSW 8.9 mph 11 mph 89% 0 in 148 W/m2
11:18 48.6 °F 45.1 °F 30.2 in WNW 2.9 mph 10 mph 88% 0 in 97 W/m2
11:23 48.6 °F 45.1 °F 30.2 in WNW 6.9 mph 11 mph 88% 0 in 207 W/m2
11:28 48.7 °F 45.3 °F 30.2 in NW 4.9 mph 6 mph 88% 0 in 190 W/m2
11:33 48.9 °F 45.5 °F 30.2 in West 4 mph 6 mph 88% 0 in 183 W/m2
11:38 48.9 °F 45.1 °F 30.2 in NW 4 mph 9 mph 87% 0 in 171 W/m2
11:43 49.1 °F 45.3 °F 30.2 in WSW 4 mph 13 mph 87% 0 in 160 W/m2
11:48 49.1 °F 45.1 °F 30.2 in SW 11 mph 11 mph 86% 0 in 81 W/m2
11:53 48.9 °F 45.1 °F 30.2 in NNW 4.9 mph 7 mph 87% 0 in 128 W/m2
11:58 48.6 °F 45.1 °F 30.2 in SW 6 mph 9 mph 88% 0 in 107 W/m2
12:03 48.4 °F 45.3 °F 30.3 in West 6 mph 10 mph 89% 0 in 88 W/m2
12:08 48.4 °F 45.3 °F 30.2 in WNW 6.9 mph 15 mph 89% 0 in 47 W/m2
12:13 48.4 °F 45.3 °F 30.2 in WNW 2.9 mph 11 mph 89% 0 in 83 W/m2
12:18 48.4 °F 45 °F 30.3 in WNW 12.1 mph 12 mph 88% 0 in 65 W/m2
12:23 48.4 °F 45 °F 30.3 in NW 6 mph 9 mph 88% 0 in 49 W/m2
12:28 48.4 °F 45 °F 30.3 in NW 6 mph 11 mph 88% 0 in 98 W/m2
12:33 48.6 °F 44.8 °F 30.3 in WNW 8.1 mph 16 mph 87% 0 in 153 W/m2
12:38 48.7 °F 45 °F 30.3 in NW 2.9 mph 8 mph 87% 0 in 141 W/m2
12:43 48.7 °F 44.8 °F 30.3 in WNW 4.9 mph 16 mph 86% 0 in 113 W/m2
12:48 48.9 °F 45 °F 30.2 in SW 2 mph 10 mph 86% 0 in 111 W/m2
12:53 48.9 °F 45 °F 30.2 in West 6.9 mph 10 mph 86% 0 in 91 W/m2
12:58 48.9 °F 45 °F 30.3 in West 8.9 mph 11 mph 86% 0 in 93 W/m2
13:03 48.9 °F 45.1 °F 30.3 in WNW 4.9 mph 11 mph 87% 0 in 74 W/m2
13:08 48.7 °F 45.3 °F 30.3 in WNW 2.9 mph 8 mph 88% 0 in 60 W/m2
13:13 48.4 °F 45.3 °F 30.3 in WNW 0.9 mph 10 mph 89% 0.01 in 60 W/m2
13:18 48.4 °F 45.5 °F 30.3 in West 6 mph 7 mph 90% 0.01 in 56 W/m2
13:23 48 °F 45.5 °F 30.3 in NW 2 mph 6 mph 91% 0.02 in 42 W/m2
13:28 47.8 °F 45.3 °F 30.3 in WSW 6.9 mph 9 mph 91% 0.02 in 102 W/m2
13:33 47.8 °F 45.7 °F 30.3 in West 4 mph 7 mph 92% 0.02 in 97 W/m2
13:38 47.8 °F 45.7 °F 30.3 in NW 4 mph 10 mph 92% 0.02 in 118 W/m2
13:43 47.8 °F 45.7 °F 30.3 in WSW 0.9 mph 8 mph 92% 0.02 in 77 W/m2
13:48 47.8 °F 45.7 °F 30.3 in WSW 6.9 mph 10 mph 92% 0.02 in 79 W/m2
13:53 47.8 °F 45.3 °F 30.3 in WNW 0.9 mph 4 mph 91% 0.02 in 116 W/m2
13:58 48 °F 45.9 °F 30.3 in SW 4 mph 5 mph 92% 0.02 in 76 W/m2
14:03 48 °F 45.5 °F 30.3 in WNW 6.9 mph 13 mph 91% 0.02 in 125 W/m2
14:08 48.4 °F 45.9 °F 30.3 in West 8.1 mph 11 mph 91% 0.02 in 121 W/m2
14:13 48.4 °F 45.5 °F 30.3 in West 4 mph 13 mph 90% 0.02 in 100 W/m2
14:18 48.4 °F 45.5 °F 30.3 in WSW 0.9 mph 7 mph 90% 0.02 in 90 W/m2
14:23 48.4 °F 45.5 °F 30.3 in West 6.9 mph 13 mph 90% 0.01 in 47 W/m2
14:28 48.4 °F 45.5 °F 30.3 in West 2 mph 14 mph 90% 0 in 63 W/m2
14:33 48.2 °F 45.3 °F 30.3 in WSW 2.9 mph 8 mph 90% 0 in 47 W/m2
14:38 48 °F 45.5 °F 30.3 in WNW 4 mph 8 mph 91% 0.01 in 53 W/m2
14:43 48 °F 45.5 °F 30.3 in WSW 4 mph 7 mph 91% 0.01 in 47 W/m2
14:48 47.8 °F 45.3 °F 30.3 in WNW 2.9 mph 4 mph 91% 0.01 in 39 W/m2
14:53 47.8 °F 45.3 °F 30.3 in WNW 2 mph 8 mph 91% 0.01 in 40 W/m2
14:58 47.8 °F 45.3 °F 30.3 in WNW 4 mph 4 mph 91% 0.01 in 46 W/m2
15:03 47.8 °F 45.7 °F 30.3 in SW 2.9 mph 3 mph 92% 0.01 in 49 W/m2
15:08 47.8 °F 45.7 °F 30.3 in West 0.9 mph 3 mph 92% 0.01 in 37 W/m2
15:13 47.7 °F 45.5 °F 30.3 in Calm   3 mph 92% 0.01 in 47 W/m2
15:18 47.7 °F 45.5 °F 30.3 in Calm   4 mph 92% 0.01 in 35 W/m2
15:23 47.8 °F 45.7 °F 30.3 in West 0.9 mph 4 mph 92% 0.01 in 35 W/m2
15:28 47.8 °F 45.7 °F 30.3 in Calm   3 mph 92% 0.01 in 76 W/m2
15:33 47.8 °F 45.7 °F 30.3 in NW 0.9 mph 3 mph 92% 0.01 in 47 W/m2
15:38 48 °F 45.9 °F 30.3 in SSW 4 mph 4 mph 92% 0 in 30 W/m2
15:43 48 °F 45.5 °F 30.3 in East 2.9 mph 3 mph 91% 0 in 33 W/m2
15:48 48 °F 45.5 °F 30.3 in North 0.9 mph 2 mph 91% 0.01 in 14 W/m2
15:53 47.8 °F 45.3 °F 30.3 in West 0.9 mph 4 mph 91% 0.01 in 14 W/m2
15:58 48 °F 45.5 °F 30.3 in West 2 mph 3 mph 91% 0.01 in 12 W/m2
16:03 48 °F 45.5 °F 30.3 in NW 2 mph 4 mph 91% 0.01 in 30 W/m2
16:08 48 °F 45.1 °F 30.3 in WNW 0.9 mph 2 mph 90% 0.01 in 16 W/m2
16:13 48 °F 45.1 °F 30.3 in WNW 2 mph 3 mph 90% 0.01 in 14 W/m2
16:18 48 °F 45.1 °F 30.3 in Calm   3 mph 90% 0.01 in 5 W/m2
16:23 48 °F 45.1 °F 30.3 in West 2 mph 5 mph 90% 0.01 in 0 W/m2
16:28 48 °F 45.1 °F 30.3 in Calm   9 mph 90% 0.02 in 0 W/m2
16:33 47.8 °F 45 °F 30.3 in WNW 2.9 mph 12 mph 90% 0.06 in 0 W/m2
16:38 47.1 °F 44.1 °F 30.3 in West 2.9 mph 7 mph 89% 0.07 in 0 W/m2
16:43 46.6 °F 43.5 °F 30.3 in WSW 4 mph 12 mph 89% 0.09 in 0 W/m2
16:48 46 °F 43.3 °F 30.3 in WNW 8.1 mph 9 mph 90% 0.09 in 0 W/m2
16:53 45.7 °F 43 °F 30.3 in WSW 4 mph 8 mph 90% 0.09 in 0 W/m2
16:58 45.3 °F 42.6 °F 30.3 in WNW 4.9 mph 8 mph 90% 0.09 in 0 W/m2
17:03 45.3 °F 42.6 °F 30.3 in West 2 mph 9 mph 90% 0.09 in 0 W/m2
17:08 45.3 °F 42.8 °F 30.3 in SW 6 mph 8 mph 91% 0.09 in 0 W/m2
17:13 45.3 °F 42.8 °F 30.3 in West 6.9 mph 9 mph 91% 0.09 in 0 W/m2
17:18 45.3 °F 43.2 °F 30.3 in WSW 2.9 mph 9 mph 92% 0.09 in 0 W/m2
17:23 45.5 °F 43.3 °F 30.3 in West 2 mph 7 mph 92% 0.09 in 0 W/m2
17:28 45.7 °F 43.5 °F 30.3 in West 4 mph 9 mph 92% 0.08 in 0 W/m2
17:33 45.7 °F 43.5 °F 30.3 in West 6 mph 7 mph 92% 0.05 in 0 W/m2
17:38 45.9 °F 43.9 °F 30.3 in SW 4.9 mph 12 mph 93% 0.03 in 0 W/m2
17:43 46 °F 43.9 °F 30.3 in WNW 2 mph 7 mph 92% 0.02 in 0 W/m2
17:48 46 °F 44.1 °F 30.3 in West 6 mph 12 mph 93% 0 in 0 W/m2
17:53 46 °F 43.9 °F 30.3 in WSW 2.9 mph 8 mph 92% 0 in 0 W/m2
17:58 46 °F 43.9 °F 30.3 in SW 8.9 mph 9 mph 92% 0 in 0 W/m2
18:03 46 °F 43.9 °F 30.3 in West 2.9 mph 8 mph 92% 0 in 0 W/m2
18:08 46 °F 43.9 °F 30.3 in West 8.1 mph 11 mph 92% 0 in 0 W/m2
18:13 46 °F 43.9 °F 30.3 in SSW 2 mph 9 mph 92% 0 in 0 W/m2
18:18 46.2 °F 44.1 °F 30.3 in West 2.9 mph 11 mph 92% 0 in 0 W/m2
18:23 46.2 °F 44.1 °F 30.3 in West 2 mph 5 mph 92% 0 in 0 W/m2
18:28 46 °F 43.9 °F 30.3 in NW 2.9 mph 6 mph 92% 0 in 0 W/m2
18:33 46 °F 43.9 °F 30.3 in West 2.9 mph 6 mph 92% 0 in 0 W/m2
18:38 46 °F 44.1 °F 30.3 in WNW 2.9 mph 7 mph 93% 0 in 0 W/m2
18:43 46 °F 44.1 °F 30.3 in WNW 4.9 mph 7 mph 93% 0 in 0 W/m2
18:48 46.2 °F 44.2 °F 30.3 in NW 4 mph 8 mph 93% 0 in 0 W/m2
18:53 46.2 °F 44.1 °F 30.4 in WSW 4 mph 9 mph 92% 0 in 0 W/m2
18:58 46.2 °F 44.1 °F 30.4 in SSW 4 mph 6 mph 92% 0 in 0 W/m2
19:03 46.2 °F 44.1 °F 30.4 in West 2.9 mph 9 mph 92% 0 in 0 W/m2
19:08 46.2 °F 44.2 °F 30.4 in West 2 mph 6 mph 93% 0 in 0 W/m2
19:13 46 °F 44.1 °F 30.4 in WSW 4 mph 4 mph 93% 0 in 0 W/m2
19:18 46 °F 44.1 °F 30.4 in West 0.9 mph 4 mph 93% 0 in 0 W/m2
19:23 46 °F 44.1 °F 30.4 in WNW 4 mph 7 mph 93% 0 in 0 W/m2
19:28 46 °F 44.1 °F 30.4 in West 4 mph 7 mph 93% 0 in 0 W/m2
19:34 46 °F 44.1 °F 30.4 in WSW 4.9 mph 5 mph 93% 0 in 0 W/m2
19:39 46 °F 44.1 °F 30.4 in WNW 2.9 mph 7 mph 93% 0 in 0 W/m2
19:44 46 °F 44.1 °F 30.4 in West 4 mph 10 mph 93% 0 in 0 W/m2
19:49 46 °F 44.1 °F 30.4 in West 0.9 mph 6 mph 93% 0 in 0 W/m2
19:54 46 °F 44.1 °F 30.4 in West 6 mph 10 mph 93% 0 in 0 W/m2
19:59 46 °F 44.1 °F 30.4 in WSW 2.9 mph 6 mph 93% 0 in 0 W/m2
20:04 46 °F 44.1 °F 30.4 in West 0.9 mph 10 mph 93% 0 in 0 W/m2
20:09 45.9 °F 43.9 °F 30.4 in West 6 mph 7 mph 93% 0 in 0 W/m2
20:14 45.9 °F 43.9 °F 30.4 in WNW 4 mph 4 mph 93% 0 in 0 W/m2
20:19 45.7 °F 43.7 °F 30.4 in WNW 4.9 mph 5 mph 93% 0 in 0 W/m2
20:24 45.7 °F 43.7 °F 30.4 in West 2 mph 9 mph 93% 0 in 0 W/m2
20:29 45.5 °F 43.5 °F 30.4 in West 4 mph 10 mph 93% 0 in 0 W/m2
20:34 45.5 °F 43.5 °F 30.4 in West 2 mph 9 mph 93% 0 in 0 W/m2
20:39 45.3 °F 43.3 °F 30.4 in WNW 2.9 mph 10 mph 93% 0 in 0 W/m2
20:44 45.3 °F 43.7 °F 30.4 in WSW 4 mph 8 mph 94% 0 in 0 W/m2
20:49 45.1 °F 43.5 °F 30.4 in West 4 mph 7 mph 94% 0 in 0 W/m2
20:54 45.3 °F 43.7 °F 30.4 in West 4 mph 8 mph 94% 0 in 0 W/m2
20:59 45.3 °F 43.7 °F 30.4 in West 2.9 mph 9 mph 94% 0 in 0 W/m2
21:04 45.3 °F 43.3 °F 30.4 in SW 4.9 mph 8 mph 93% 0 in 0 W/m2
21:09 45.3 °F 43.3 °F 30.4 in West 2 mph 6 mph 93% 0 in 0 W/m2
21:14 45.1 °F 43.2 °F 30.4 in WSW 4 mph 8 mph 93% 0 in 0 W/m2
21:19 45.1 °F 43.2 °F 30.4 in West 4 mph 8 mph 93% 0 in 0 W/m2
21:24 45.1 °F 43.2 °F 30.4 in WSW 4 mph 6 mph 93% 0 in 0 W/m2
21:29 45.1 °F 43.2 °F 30.4 in West 2.9 mph 9 mph 93% 0 in 0 W/m2
21:34 45 °F 43 °F 30.4 in West 2 mph 6 mph 93% 0 in 0 W/m2
21:39 45 °F 43 °F 30.4 in West 6 mph 6 mph 93% 0 in 0 W/m2
21:44 45 °F 43 °F 30.4 in WSW 6.9 mph 9 mph 93% 0 in 0 W/m2
21:49 45 °F 43.3 °F 30.4 in WSW 2.9 mph 8 mph 94% 0 in 0 W/m2
21:54 45.1 °F 43.2 °F 30.4 in West 4 mph 10 mph 93% 0 in 0 W/m2
21:59 45.1 °F 43.2 °F 30.4 in West 2.9 mph 9 mph 93% 0 in 0 W/m2
22:04 45.3 °F 43.3 °F 30.4 in West 6 mph 7 mph 93% 0 in 0 W/m2
22:09 45.3 °F 43.3 °F 30.4 in West 4 mph 8 mph 93% 0 in 0 W/m2
22:14 45.3 °F 43.3 °F 30.4 in West 2.9 mph 7 mph 93% 0 in 0 W/m2
22:19 45.3 °F 43.3 °F 30.4 in WNW 4 mph 6 mph 93% 0 in 0 W/m2
22:24 45.3 °F 43.3 °F 30.4 in WNW 2.9 mph 7 mph 93% 0 in 0 W/m2
22:29 45.3 °F 43.3 °F 30.4 in NW 2 mph 8 mph 93% 0 in 0 W/m2
22:34 45.3 °F 43.3 °F 30.4 in WNW 4 mph 7 mph 93% 0 in 0 W/m2
22:39 45.1 °F 43.2 °F 30.4 in West 2.9 mph 8 mph 93% 0 in 0 W/m2
22:44 45.1 °F 43.2 °F 30.4 in WNW 2.9 mph 6 mph 93% 0 in 0 W/m2
22:49 45.1 °F 43.2 °F 30.4 in West 4 mph 8 mph 93% 0 in 0 W/m2
22:54 45.1 °F 43.2 °F 30.4 in West 4 mph 7 mph 93% 0 in 0 W/m2
22:59 45.1 °F 43.2 °F 30.4 in WNW 2 mph 4 mph 93% 0 in 0 W/m2
23:04 45 °F 43 °F 30.4 in NW 2.9 mph 7 mph 93% 0 in 0 W/m2
23:09 45 °F 43 °F 30.4 in WNW 4 mph 8 mph 93% 0 in 0 W/m2
23:14 44.8 °F 42.8 °F 30.4 in WNW 2 mph 5 mph 93% 0 in 0 W/m2
23:19 44.8 °F 42.8 °F 30.4 in WNW 2 mph 8 mph 93% 0 in 0 W/m2
23:24 44.6 °F 42.6 °F 30.4 in WNW 2 mph 3 mph 93% 0 in 0 W/m2
23:29 44.4 °F 42.4 °F 30.4 in West 2 mph 6 mph 93% 0 in 0 W/m2
23:34 44.4 °F 42.4 °F 30.4 in WNW 2 mph 6 mph 93% 0 in 0 W/m2
23:39 44.4 °F 42.3 °F 30.4 in West 2.9 mph 4 mph 92% 0 in 0 W/m2
23:44 44.4 °F 42.3 °F 30.4 in WSW 4 mph 9 mph 92% 0 in 0 W/m2
23:49 44.4 °F 41.9 °F 30.5 in WNW 2.9 mph 11 mph 91% 0 in 0 W/m2
23:54 44.4 °F 41.9 °F 30.5 in West 2 mph 6 mph 91% 0 in 0 W/m2
23:59 44.2 °F 41.7 °F 30.5 in West 6 mph 11 mph 91% 0 in 0 W/m2
Juneau County Weather
Compliments of Weather Underground - 2 mb